Garfield, WA

7:20 PM PDT on August 29, 2014 (GMT -0700)
KWAGARFI3 | Change Station
CLOSE
Current Station
Personal Weather Station
Location: Garfield, WA
Elevation: 2520 ft
Nearby Weather Stations

Elev 2520 ft 47.01 °N, 117.15 °W | Updated 28 seconds ago

Mostly Cloudy
Mostly Cloudy
72.0 °F
Feels Like 76 °F
N
0.0
Wind Variable Wind from SW
Gusts 0.0 mph

Today
High -- | Low -- °F
--% Chance of Precip.
Yesterday
High -- | Low -- °F
Precip. -- in
6:04 AM 7:33 PM
Waxing Crescent, 18% visible
Pressure 29.84 in
Visibility 10.0 miles
Clouds Clear
Heat Index 76 °F
Dew Point 37 °F
Humidity 28%
Rainfall 0.00 in
Snow Depth Not available.
UV 0 out of 12
Pollen 7.60 out of 12
Air Quality Not available.
Flu Activity Not available.
METAR KPUW 300153Z AUTO 30006KT 10SM CLR 23/04 A2987 RMK AO2 SLP105 T02330039

More Conditions Fewer Conditions

Pressure 29.84 in
Visibility 10.0 miles
Clouds Clear
Heat Index 76 °F
Dew Point 37 °F
Humidity 28%
Rainfall 0.00 in
Snow Depth Not available.
UV 0 out of 12
Pollen 7.60 out of 12
Air Quality Not available.
Flu Activity Not available.
METAR KPUW 300153Z AUTO 30006KT 10SM CLR 23/04 A2987 RMK AO2 SLP105 T02330039

More Conditions Fewer Conditions

10-Day Weather Forecast

Almanac

Astronomy

Aug. 29, 2014 Rise Set
Actual Time 6:04 AM PDT 7:33 PM PDT
Civil Twilight 5:32 AM PDT 8:05 PM PDT
Nautical Twilight 4:53 AM PDT 8:43 PM PDT
Astronomical Twilight 4:11 AM PDT 9:25 PM PDT
Moon 10:15 AM PDT (8/29) 9:15 PM PDT (8/29)
Length of Visible Light 14h 33m
Length of Day
13h 29m
Tomorrow will be 3m 14s shorter.
Waxing Crescent, 18% of the Moon is Illuminated
Today
Waxing Crescent
Sep 2
First Quarter
Sep 8
Full
Sep 15
Last Quarter
Sep 24
New

Today's Extremes

State Highs State Lows

Community

WunderPhotos

Upload Photos

1,748,412 photos uploaded!

Nearby

Snow Depth

Station Depth Elevation
Quartz Peak 1 in 4700 ft
Spruce Springs 0 in 5700 ft
Moses Mountain 1 in 5300 ft
Sentinel Butte 0 in 4920 ft
Trough 0 in 5300 ft

Earthquake Activity

City Distance Mag. Time & Date
No recent earthquake activity has been reported nearby.
Minimum magnitude displayed is 2.5.

Coastal Water Temperatures

Place Temperature
No Stations Reporting

Nearby Weather Stations